Time;durP1;ratioP1;P1;durP2;ratioP2;P2;SDS_P1;SDS_P2;PMS_P1;PMS_P2;Temp;Humidity;BMP_temperature;BMP_pressure;BME280_temperature;BME280_humidity;BME280_pressure;Samples;Min_cycle;Max_cycle;Signal;HPM_P1;HPM_P2
2022/09/25 00:03:31;;;;;;;13.98;12.68;;;;;;;;;;10058885;28;20053;-64
2022/09/25 00:08:24;;;;;;;14.30;12.90;;;;;;;;;;10065565;28;20407;-64
2022/09/25 00:13:21;;;;;;;13.60;12.32;;;;;;;;;;10054470;28;20046;-64
2022/09/25 00:19:48;;;;;;;14.57;13.27;;;;;;;;;;10066762;28;20049;-63
2022/09/25 00:23:29;;;;;;;13.32;12.13;;;;;;;;;;10061938;28;20053;-63
2022/09/25 00:28:23;;;;;;;12.13;11.13;;;;;;;;;;10071292;28;20144;-63
2022/09/25 00:33:17;;;;;;;11.77;10.75;;;;;;;;;;10098603;28;20123;-63
2022/09/25 00:38:11;;;;;;;14.25;12.95;;;;;;;;;;10093453;28;20719;-63
2022/09/25 00:43:15;;;;;;;14.38;13.02;;;;;;;;;;10103334;28;20135;-64
2022/09/25 00:48:14;;;;;;;13.05;11.85;;;;;;;;;;10081694;28;19928;-63
2022/09/25 00:53:11;;;;;;;12.27;11.10;;;;;;;;;;10095088;28;20045;-62
2022/09/25 00:58:04;;;;;;;12.18;11.07;;;;;;;;;;10084890;28;20057;-63
2022/09/25 01:02:57;;;;;;;13.10;11.93;;;;;;;;;;10087675;28;20548;-63
2022/09/25 01:07:52;;;;;;;12.63;11.52;;;;;;;;;;10100228;28;20160;-65
2022/09/25 01:12:47;;;;;;;11.68;10.68;;;;;;;;;;10104297;28;20076;-63
2022/09/25 01:17:49;;;;;;;12.75;11.73;;;;;;;;;;10087234;28;20499;-63
2022/09/25 01:22:54;;;;;;;13.52;12.32;;;;;;;;;;10093411;28;20459;-63
2022/09/25 01:28:08;;;;;;;14.55;13.23;;;;;;;;;;10107461;28;20139;-62
2022/09/25 01:33:17;;;;;;;14.73;13.43;;;;;;;;;;10060752;28;20056;-63
2022/09/25 01:38:16;;;;;;;13.18;12.00;;;;;;;;;;10058412;28;20053;-63
2022/09/25 01:43:15;;;;;;;13.77;12.57;;;;;;;;;;10067887;28;20100;-63
2022/09/25 01:48:10;;;;;;;13.45;12.25;;;;;;;;;;10066245;28;20455;-63
2022/09/25 01:53:08;;;;;;;13.25;12.15;;;;;;;;;;10063823;28;20057;-63
2022/09/25 01:58:27;;;;;;;12.63;11.55;;;;;;;;;;10062747;28;20136;-63
2022/09/25 02:03:50;;;;;;;13.80;12.60;;;;;;;;;;10043023;28;20128;-63
2022/09/25 02:09:02;;;;;;;12.65;11.50;;;;;;;;;;10035514;28;20405;-63
2022/09/25 02:14:01;;;;;;;12.43;11.35;;;;;;;;;;10044432;28;20535;-63
2022/09/25 02:24:18;;;;;;;12.85;11.63;;;;;;;;;;10059833;28;20128;-66
2022/09/25 02:29:14;;;;;;;11.90;10.95;;;;;;;;;;10063874;28;20057;-64
2022/09/25 02:34:08;;;;;;;11.60;10.60;;;;;;;;;;10091435;28;20057;-66
2022/09/25 02:39:08;;;;;;;12.63;11.52;;;;;;;;;;10107980;28;20067;-66
2022/09/25 02:44:06;;;;;;;12.13;11.10;;;;;;;;;;10105896;28;20099;-66
2022/09/25 02:49:09;;;;;;;12.18;11.07;;;;;;;;;;10106283;28;20073;-66
2022/09/25 02:54:25;;;;;;;12.00;11.02;;;;;;;;;;10108640;28;20057;-64
2022/09/25 02:59:22;;;;;;;11.18;10.23;;;;;;;;;;10077378;28;20547;-66
2022/09/25 03:04:18;;;;;;;12.60;11.50;;;;;;;;;;10072799;28;20393;-67
2022/09/25 03:09:11;;;;;;;12.48;11.45;;;;;;;;;;10100606;28;20068;-64
2022/09/25 03:14:04;;;;;;;11.93;10.93;;;;;;;;;;10078615;28;20480;-64
2022/09/25 03:18:59;;;;;;;11.80;10.85;;;;;;;;;;10103172;28;20049;-66
2022/09/25 03:23:55;;;;;;;12.88;11.77;;;;;;;;;;10102770;28;20545;-64
2022/09/25 03:28:49;;;;;;;12.55;11.45;;;;;;;;;;10092516;28;20053;-64
2022/09/25 03:33:44;;;;;;;12.90;11.80;;;;;;;;;;10079029;28;20055;-63
2022/09/25 03:38:40;;;;;;;12.20;11.00;;;;;;;;;;10082256;28;20148;-63
2022/09/25 03:43:39;;;;;;;13.15;11.95;;;;;;;;;;10082797;28;20041;-63
2022/09/25 03:48:33;;;;;;;14.02;12.85;;;;;;;;;;10068459;28;20060;-64
2022/09/25 03:53:28;;;;;;;11.80;10.80;;;;;;;;;;10070417;28;20459;-64
2022/09/25 03:58:23;;;;;;;12.23;11.13;;;;;;;;;;10081935;28;20503;-64
2022/09/25 04:03:18;;;;;;;12.63;11.52;;;;;;;;;;10082210;28;20514;-64
2022/09/25 04:08:11;;;;;;;13.43;12.25;;;;;;;;;;10083929;28;20050;-64
2022/09/25 04:13:06;;;;;;;13.27;12.18;;;;;;;;;;10073909;28;20072;-64
2022/09/25 04:17:59;;;;;;;12.40;11.27;;;;;;;;;;10076905;28;20057;-64
2022/09/25 04:22:58;;;;;;;11.55;10.55;;;;;;;;;;10073083;28;20125;-63
2022/09/25 04:27:55;;;;;;;12.65;11.55;;;;;;;;;;10074847;28;20061;-64
2022/09/25 04:38:01;;;;;;;13.07;11.88;;;;;;;;;;10073146;28;20064;-66
2022/09/25 04:42:59;;;;;;;12.07;10.98;;;;;;;;;;10071468;28;20571;-66
2022/09/25 04:47:54;;;;;;;13.02;11.93;;;;;;;;;;10068003;28;20053;-66
2022/09/25 04:52:50;;;;;;;12.05;11.05;;;;;;;;;;10078173;28;20474;-67
2022/09/25 04:57:43;;;;;;;11.95;10.70;;;;;;;;;;10085599;28;20487;-66
2022/09/25 05:02:51;;;;;;;12.43;11.32;;;;;;;;;;10063194;28;20488;-67
2022/09/25 05:07:55;;;;;;;13.43;12.23;;;;;;;;;;10066520;28;20053;-67
2022/09/25 05:12:54;;;;;;;13.75;12.55;;;;;;;;;;10063043;28;20045;-65
2022/09/25 05:17:47;;;;;;;17.43;15.93;;;;;;;;;;10072966;28;20423;-65
2022/09/25 05:22:41;;;;;;;20.50;18.63;;;;;;;;;;10072376;28;20491;-65
2022/09/25 05:27:35;;;;;;;20.20;18.40;;;;;;;;;;10066977;28;20073;-65
2022/09/25 05:32:29;;;;;;;21.23;19.23;;;;;;;;;;10063065;28;20053;-66
2022/09/25 05:37:23;;;;;;;21.67;19.67;;;;;;;;;;10058912;28;20049;-66
2022/09/25 05:42:18;;;;;;;22.27;20.20;;;;;;;;;;10060189;28;20136;-65
2022/09/25 05:47:12;;;;;;;21.85;19.80;;;;;;;;;;10056675;28;20052;-66
2022/09/25 05:52:06;;;;;;;22.13;20.05;;;;;;;;;;10048342;28;20053;-65
2022/09/25 05:57:00;;;;;;;21.88;19.95;;;;;;;;;;10041890;28;20053;-64
2022/09/25 06:01:54;;;;;;;21.33;19.23;;;;;;;;;;10058095;28;20100;-65
2022/09/25 06:06:47;;;;;;;21.85;19.85;;;;;;;;;;10057362;28;20569;-64
2022/09/25 06:11:46;;;;;;;21.33;19.42;;;;;;;;;;10052321;28;20057;-63
2022/09/25 06:16:40;;;;;;;22.13;20.13;;;;;;;;;;10054138;28;20045;-62
2022/09/25 06:21:34;;;;;;;21.13;19.10;;;;;;;;;;10049108;28;20076;-62
2022/09/25 06:26:28;;;;;;;21.75;19.75;;;;;;;;;;10044235;28;20074;-63
2022/09/25 06:31:22;;;;;;;23.25;21.15;;;;;;;;;;10070770;28;20060;-65
2022/09/25 06:36:16;;;;;;;23.45;21.33;;;;;;;;;;10092948;28;20048;-65
2022/09/25 06:41:10;;;;;;;23.20;20.92;;;;;;;;;;10075250;28;20058;-65
2022/09/25 06:46:05;;;;;;;21.13;19.17;;;;;;;;;;10070571;28;20127;-65
2022/09/25 06:50:59;;;;;;;19.77;17.98;;;;;;;;;;10075204;28;20045;-74
2022/09/25 06:55:56;;;;;;;21.95;19.92;;;;;;;;;;10084109;28;20052;-63
2022/09/25 07:00:52;;;;;;;22.05;19.95;;;;;;;;;;10076733;28;20048;-63
2022/09/25 07:05:47;;;;;;;21.65;19.63;;;;;;;;;;10075777;28;20399;-63
2022/09/25 07:11:08;;;;;;;20.83;18.85;;;;;;;;;;10075472;28;20056;-63
2022/09/25 07:16:04;;;;;;;19.83;18.13;;;;;;;;;;10071444;28;20045;-65
2022/09/25 07:21:29;;;;;;;20.58;18.52;;;;;;;;;;10077256;28;20649;-63
2022/09/25 07:26:24;;;;;;;21.40;19.33;;;;;;;;;;10071590;28;20598;-62
2022/09/25 07:31:20;;;;;;;20.63;18.73;;;;;;;;;;10088166;28;20072;-62
2022/09/25 07:36:15;;;;;;;21.90;19.60;;;;;;;;;;10096627;28;20057;-62
2022/09/25 07:41:10;;;;;;;22.75;20.55;;;;;;;;;;10083500;28;20049;-62
2022/09/25 07:46:04;;;;;;;23.88;21.48;;;;;;;;;;10078206;28;20571;-64
2022/09/25 07:51:02;;;;;;;22.92;20.83;;;;;;;;;;10093222;28;20531;-64
2022/09/25 07:56:17;;;;;;;23.55;21.27;;;;;;;;;;10094101;28;20045;-64
2022/09/25 08:01:11;;;;;;;24.50;21.58;;;;;;;;;;10091882;28;20512;-64
2022/09/25 08:06:10;;;;;;;22.88;20.63;;;;;;;;;;10070204;28;20045;-65
2022/09/25 08:11:06;;;;;;;23.42;21.20;;;;;;;;;;10073339;28;20049;-69
2022/09/25 08:16:10;;;;;;;26.67;23.42;;;;;;;;;;10073792;28;20045;-69
2022/09/25 08:21:08;;;;;;;24.85;22.60;;;;;;;;;;10073997;28;20049;-73
2022/09/25 08:26:02;;;;;;;25.05;22.67;;;;;;;;;;10078757;28;20493;-74
2022/09/25 08:31:00;;;;;;;24.63;22.10;;;;;;;;;;10080459;28;20158;-72
2022/09/25 08:35:56;;;;;;;25.02;22.80;;;;;;;;;;10079570;28;20044;-72
2022/09/25 08:41:10;;;;;;;26.17;23.55;;;;;;;;;;10075386;28;20050;-73
2022/09/25 08:51:38;;;;;;;24.27;21.90;;;;;;;;;;10081785;28;20045;-75
2022/09/25 08:56:34;;;;;;;24.13;21.58;;;;;;;;;;10104775;28;20053;-76
2022/09/25 09:01:37;;;;;;;24.15;21.95;;;;;;;;;;10103972;28;20068;-75
2022/09/25 09:06:32;;;;;;;26.02;23.48;;;;;;;;;;10093581;28;20571;-72
2022/09/25 09:11:44;;;;;;;25.05;22.63;;;;;;;;;;10081116;28;20052;-71
2022/09/25 09:16:51;;;;;;;26.10;23.48;;;;;;;;;;10068088;28;20163;-76
2022/09/25 09:21:54;;;;;;;30.13;24.13;;;;;;;;;;10086126;28;20107;-73
2022/09/25 09:26:50;;;;;;;27.83;22.85;;;;;;;;;;10069415;28;20053;-74
2022/09/25 09:32:12;;;;;;;23.73;20.92;;;;;;;;;;10054404;28;20069;-73
2022/09/25 09:37:31;;;;;;;22.70;20.45;;;;;;;;;;10058224;28;20558;-75
2022/09/25 09:42:31;;;;;;;22.27;20.08;;;;;;;;;;10062771;28;20100;-67
2022/09/25 09:47:27;;;;;;;20.75;18.75;;;;;;;;;;10059966;28;20060;-68
2022/09/25 09:52:35;;;;;;;18.42;16.35;;;;;;;;;;10055379;28;20049;-68
2022/09/25 09:57:43;;;;;;;18.50;16.70;;;;;;;;;;10050863;28;20048;-67
2022/09/25 10:03:02;;;;;;;17.40;15.80;;;;;;;;;;10043048;28;20045;-68
2022/09/25 10:07:56;;;;;;;17.13;15.52;;;;;;;;;;10047502;28;20049;-72
2022/09/25 10:12:50;;;;;;;15.90;14.38;;;;;;;;;;10074753;28;20082;-68
2022/09/25 10:17:45;;;;;;;14.20;12.80;;;;;;;;;;10054668;28;20052;-70
2022/09/25 10:22:39;;;;;;;14.30;12.65;;;;;;;;;;10069853;28;20080;-70
2022/09/25 10:27:35;;;;;;;12.20;11.10;;;;;;;;;;10060559;28;20420;-67
2022/09/25 10:32:29;;;;;;;11.35;10.18;;;;;;;;;;10070122;28;20119;-66
2022/09/25 10:37:33;;;;;;;12.75;11.48;;;;;;;;;;10069206;28;20053;-67
2022/09/25 10:42:39;;;;;;;13.60;12.30;;;;;;;;;;10070056;28;20076;-71
2022/09/25 10:52:51;;;;;;;13.55;11.95;;;;;;;;;;10066501;28;20049;-67
2022/09/25 10:57:47;;;;;;;12.77;11.48;;;;;;;;;;10063413;28;20057;-67
2022/09/25 11:02:45;;;;;;;13.35;11.80;;;;;;;;;;10055352;28;20124;-68
2022/09/25 11:07:38;;;;;;;12.25;11.15;;;;;;;;;;10060737;28;20145;-69
2022/09/25 11:12:32;;;;;;;12.48;10.00;;;;;;;;;;10063440;28;20052;-69
2022/09/25 11:17:43;;;;;;;12.60;11.40;;;;;;;;;;10063731;28;20072;-69
2022/09/25 11:22:37;;;;;;;14.05;12.68;;;;;;;;;;10046371;28;20052;-69
2022/09/25 11:27:44;;;;;;;14.32;12.95;;;;;;;;;;10061323;28;20041;-70
2022/09/25 11:32:49;;;;;;;16.73;15.05;;;;;;;;;;10062836;28;20091;-68
2022/09/25 11:38:09;;;;;;;17.83;13.80;;;;;;;;;;10063655;28;20049;-70
2022/09/25 11:43:08;;;;;;;15.30;13.80;;;;;;;;;;10062411;28;20053;-68
2022/09/25 11:48:08;;;;;;;15.90;13.90;;;;;;;;;;10060601;28;20046;-70
2022/09/25 11:53:33;;;;;;;15.40;12.68;;;;;;;;;;10064173;28;20554;-71
2022/09/25 11:58:52;;;;;;;14.68;13.27;;;;;;;;;;10054909;28;20068;-61
2022/09/25 12:04:02;;;;;;;13.95;12.57;;;;;;;;;;10059524;28;20408;-61
2022/09/25 12:09:13;;;;;;;13.88;12.45;;;;;;;;;;10064621;28;20538;-61
2022/09/25 12:14:24;;;;;;;14.27;12.88;;;;;;;;;;10064538;28;20045;-61
2022/09/25 12:19:45;;;;;;;15.70;14.13;;;;;;;;;;10064249;28;20516;-61
2022/09/25 12:24:47;;;;;;;14.30;12.80;;;;;;;;;;10056685;28;20501;-62
2022/09/25 12:29:52;;;;;;;16.50;12.40;;;;;;;;;;10065803;28;20096;-62
2022/09/25 12:35:13;;;;;;;14.50;13.15;;;;;;;;;;10047387;28;20054;-61
2022/09/25 12:40:37;;;;;;;14.00;12.57;;;;;;;;;;10050862;28;20050;-61
2022/09/25 12:45:36;;;;;;;14.75;12.85;;;;;;;;;;10040682;28;20455;-61
2022/09/25 12:50:54;;;;;;;13.43;12.13;;;;;;;;;;10035195;28;20119;-61
2022/09/25 12:56:02;;;;;;;12.63;11.35;;;;;;;;;;10037926;28;20056;-61
2022/09/25 13:01:00;;;;;;;16.40;14.70;;;;;;;;;;10035641;28;20045;-61
2022/09/25 13:06:24;;;;;;;15.52;14.02;;;;;;;;;;10052411;28;20054;-61
2022/09/25 13:11:24;;;;;;;16.05;14.55;;;;;;;;;;10029555;28;20125;-61
2022/09/25 13:16:18;;;;;;;15.15;13.70;;;;;;;;;;10060954;28;20057;-61
2022/09/25 13:21:28;;;;;;;14.57;13.15;;;;;;;;;;10064213;28;20176;-69
2022/09/25 13:26:26;;;;;;;13.98;12.70;;;;;;;;;;10057688;28;20038;-66
2022/09/25 13:31:27;;;;;;;14.15;12.90;;;;;;;;;;10069203;28;20049;-69
2022/09/25 13:36:22;;;;;;;14.35;13.00;;;;;;;;;;10047697;28;20053;-68
2022/09/25 13:41:16;;;;;;;13.82;12.43;;;;;;;;;;10068700;28;20049;-72
2022/09/25 13:46:20;;;;;;;13.80;12.52;;;;;;;;;;10060159;28;20037;-70
2022/09/25 13:51:18;;;;;;;15.43;13.98;;;;;;;;;;10051246;28;20099;-70
2022/09/25 13:56:13;;;;;;;15.15;13.77;;;;;;;;;;10071463;28;20128;-70
2022/09/25 14:01:20;;;;;;;14.57;13.23;;;;;;;;;;10069221;28;20431;-71
2022/09/25 14:06:25;;;;;;;14.52;13.05;;;;;;;;;;10052739;28;20520;-68
2022/09/25 14:11:25;;;;;;;15.13;13.73;;;;;;;;;;10069305;28;20045;-68
2022/09/25 14:16:34;;;;;;;14.55;13.15;;;;;;;;;;10065476;28;20044;-71
2022/09/25 14:21:29;;;;;;;14.70;13.40;;;;;;;;;;10038109;28;20148;-72
2022/09/25 14:26:25;;;;;;;14.45;12.85;;;;;;;;;;10052988;28;20076;-71
2022/09/25 14:31:30;;;;;;;14.63;13.15;;;;;;;;;;10052951;28;20057;-71
2022/09/25 14:36:48;;;;;;;15.80;14.18;;;;;;;;;;10046392;28;20483;-71
2022/09/25 14:42:15;;;;;;;15.70;14.15;;;;;;;;;;10052876;28;20488;-71
2022/09/25 14:47:12;;;;;;;17.00;15.40;;;;;;;;;;10045179;28;20077;-72
2022/09/25 14:52:09;;;;;;;17.42;15.82;;;;;;;;;;10051459;28;20045;-71
2022/09/25 14:57:04;;;;;;;20.23;18.10;;;;;;;;;;10043191;28;20549;-72
2022/09/25 15:02:01;;;;;;;16.63;14.95;;;;;;;;;;10051051;28;20053;-72
2022/09/25 15:07:02;;;;;;;17.10;15.50;;;;;;;;;;10052736;28;20512;-72
2022/09/25 15:11:59;;;;;;;16.00;14.60;;;;;;;;;;10060347;28;20058;-72
2022/09/25 15:22:12;;;;;;;15.60;14.07;;;;;;;;;;10030876;28;20049;-72
2022/09/25 15:27:06;;;;;;;17.35;15.50;;;;;;;;;;10047031;28;20058;-72
2022/09/25 15:32:01;;;;;;;14.73;13.32;;;;;;;;;;10062035;28;20428;-71
2022/09/25 15:37:05;;;;;;;15.35;13.52;;;;;;;;;;10048169;28;20056;-72
2022/09/25 15:41:58;;;;;;;15.52;14.10;;;;;;;;;;10057570;28;20485;-71
2022/09/25 15:46:54;;;;;;;18.77;16.98;;;;;;;;;;10049135;28;20555;-73
2022/09/25 15:51:57;;;;;;;20.15;18.15;;;;;;;;;;10045316;28;20076;-71
2022/09/25 15:56:54;;;;;;;21.52;19.23;;;;;;;;;;10049892;28;20405;-71
2022/09/25 16:07:01;;;;;;;18.15;16.45;;;;;;;;;;10051075;28;20053;-71
2022/09/25 16:12:10;;;;;;;19.75;17.75;;;;;;;;;;10061152;28;20095;-70
2022/09/25 16:17:15;;;;;;;19.53;17.73;;;;;;;;;;10059722;28;20054;-70
2022/09/25 16:22:36;;;;;;;20.85;17.77;;;;;;;;;;10058288;28;20346;-71
2022/09/25 16:27:32;;;;;;;19.58;17.52;;;;;;;;;;10069198;28;20484;-70
2022/09/25 16:32:26;;;;;;;18.70;16.85;;;;;;;;;;10053132;28;20062;-70
2022/09/25 16:37:23;;;;;;;18.65;16.85;;;;;;;;;;10047097;28;20492;-72
2022/09/25 16:42:25;;;;;;;18.80;17.00;;;;;;;;;;10035617;28;20049;-67
2022/09/25 16:47:19;;;;;;;19.70;17.70;;;;;;;;;;10065021;28;20073;-66
2022/09/25 16:52:19;;;;;;;19.05;16.98;;;;;;;;;;10057472;28;20437;-67
2022/09/25 16:57:16;;;;;;;15.93;14.35;;;;;;;;;;10058678;28;20079;-68
2022/09/25 17:02:35;;;;;;;18.42;16.58;;;;;;;;;;10063631;28;20049;-68
2022/09/25 17:07:28;;;;;;;22.58;17.65;;;;;;;;;;10050121;28;20077;-68
2022/09/25 17:12:23;;;;;;;18.88;16.98;;;;;;;;;;10060468;28;20072;-68
2022/09/25 17:17:19;;;;;;;167.00;45.22;;;;;;;;;;10059987;28;20041;-64
2022/09/25 17:22:13;;;;;;;18.55;16.65;;;;;;;;;;10057504;28;20049;-69
2022/09/25 17:27:14;;;;;;;20.27;18.13;;;;;;;;;;10060773;28;20053;-69
2022/09/25 17:32:13;;;;;;;15.68;14.18;;;;;;;;;;10087461;28;20129;-67
2022/09/25 17:37:07;;;;;;;17.20;15.40;;;;;;;;;;10097057;28;20462;-75
2022/09/25 17:42:01;;;;;;;19.75;17.65;;;;;;;;;;10102128;28;20045;-70
2022/09/25 17:46:54;;;;;;;18.17;16.33;;;;;;;;;;10079292;28;20497;-69
2022/09/25 17:51:48;;;;;;;19.25;17.35;;;;;;;;;;10082324;28;20049;-71
2022/09/25 17:56:44;;;;;;;19.30;17.50;;;;;;;;;;10085069;28;20059;-72
2022/09/25 18:01:38;;;;;;;20.92;18.92;;;;;;;;;;10084292;28;20072;-69
2022/09/25 18:06:34;;;;;;;20.98;18.95;;;;;;;;;;10107219;28;20071;-69
2022/09/25 18:11:31;;;;;;;22.07;19.43;;;;;;;;;;10106159;28;20051;-67
2022/09/25 18:16:30;;;;;;;21.05;18.90;;;;;;;;;;10104602;28;20056;-69
2022/09/25 18:26:38;;;;;;;21.77;19.63;;;;;;;;;;10093331;28;20045;-69
2022/09/25 18:31:35;;;;;;;23.33;20.92;;;;;;;;;;10087468;28;20090;-65
2022/09/25 18:36:31;;;;;;;21.77;18.88;;;;;;;;;;10093641;28;20048;-67
2022/09/25 18:41:27;;;;;;;25.30;22.70;;;;;;;;;;10080045;28;20111;-70
2022/09/25 18:46:21;;;;;;;22.60;20.30;;;;;;;;;;10075542;28;20038;-70
2022/09/25 18:51:15;;;;;;;23.17;20.60;;;;;;;;;;10075962;28;20049;-71
2022/09/25 18:56:10;;;;;;;21.30;19.17;;;;;;;;;;10084667;28;20041;-72
2022/09/25 19:01:05;;;;;;;21.95;19.60;;;;;;;;;;10096498;28;20102;-71
2022/09/25 19:06:01;;;;;;;24.27;21.67;;;;;;;;;;10099780;28;20057;-72
2022/09/25 19:10:57;;;;;;;20.55;18.35;;;;;;;;;;10102334;28;20049;-72
2022/09/25 19:15:51;;;;;;;21.63;19.27;;;;;;;;;;10092724;28;20493;-71
2022/09/25 19:20:53;;;;;;;20.95;18.27;;;;;;;;;;10104715;28;20128;-75
2022/09/25 19:25:59;;;;;;;20.85;18.65;;;;;;;;;;10089176;28;20115;-74
2022/09/25 19:31:01;;;;;;;21.73;19.45;;;;;;;;;;10086263;28;20057;-72
2022/09/25 19:36:04;;;;;;;24.42;21.85;;;;;;;;;;10100064;28;20053;-67
2022/09/25 19:41:01;;;;;;;23.42;20.83;;;;;;;;;;10085633;28;20140;-73
2022/09/25 19:45:57;;;;;;;27.10;22.65;;;;;;;;;;10090615;28;20148;-72
2022/09/25 19:50:51;;;;;;;27.45;24.63;;;;;;;;;;10098985;28;20107;-71
2022/09/25 19:55:52;;;;;;;29.35;25.17;;;;;;;;;;10092037;28;20559;-72
2022/09/25 20:00:47;;;;;;;34.28;30.65;;;;;;;;;;10092371;28;20057;-73
2022/09/25 20:05:41;;;;;;;31.52;28.13;;;;;;;;;;10086956;28;20055;-71
2022/09/25 20:10:37;;;;;;;35.70;29.00;;;;;;;;;;10090919;28;20091;-69
2022/09/25 20:15:32;;;;;;;27.90;23.77;;;;;;;;;;10092532;28;20053;-70
2022/09/25 20:20:28;;;;;;;26.80;23.92;;;;;;;;;;10086233;28;20052;-76
2022/09/25 20:25:22;;;;;;;33.03;29.33;;;;;;;;;;10091139;28;20045;-65
2022/09/25 20:30:17;;;;;;;38.45;30.77;;;;;;;;;;10085060;28;20049;-68
2022/09/25 20:35:15;;;;;;;33.35;29.73;;;;;;;;;;10094578;28;20052;-66
2022/09/25 20:40:09;;;;;;;28.85;25.70;;;;;;;;;;10070244;28;20420;-67
2022/09/25 20:45:04;;;;;;;28.58;25.35;;;;;;;;;;10090946;28;20049;-69
2022/09/25 20:49:59;;;;;;;27.73;23.33;;;;;;;;;;10080398;28;20045;-66
2022/09/25 20:54:52;;;;;;;27.98;24.45;;;;;;;;;;10089525;28;20053;-66
2022/09/25 20:59:47;;;;;;;28.02;24.80;;;;;;;;;;10086838;28;20516;-66
2022/09/25 21:04:43;;;;;;;27.23;23.40;;;;;;;;;;10090840;28;20056;-66
2022/09/25 21:09:37;;;;;;;28.35;23.15;;;;;;;;;;10090133;28;20068;-67
2022/09/25 21:14:32;;;;;;;24.83;22.23;;;;;;;;;;10087638;28;20072;-68
2022/09/25 21:19:27;;;;;;;23.02;20.63;;;;;;;;;;10085084;28;20128;-67
2022/09/25 21:24:21;;;;;;;22.50;20.23;;;;;;;;;;10081883;28;20052;-67
2022/09/25 21:29:17;;;;;;;22.15;19.83;;;;;;;;;;10080459;28;20084;-68
2022/09/25 21:34:14;;;;;;;21.83;19.52;;;;;;;;;;10102342;28;20936;-71
2022/09/25 21:39:09;;;;;;;23.38;19.65;;;;;;;;;;10098938;28;20056;-69
2022/09/25 21:44:10;;;;;;;24.50;20.13;;;;;;;;;;10096490;28;20457;-68
2022/09/25 21:49:05;;;;;;;21.58;19.38;;;;;;;;;;10079553;28;20405;-69
2022/09/25 21:54:00;;;;;;;22.40;20.00;;;;;;;;;;10095539;28;20103;-69
2022/09/25 21:58:57;;;;;;;24.05;21.52;;;;;;;;;;10102420;28;20190;-69
2022/09/25 22:03:56;;;;;;;20.35;18.08;;;;;;;;;;10101984;28;20064;-69
2022/09/25 22:08:53;;;;;;;22.92;19.00;;;;;;;;;;10093546;28;20045;-69
2022/09/25 22:13:48;;;;;;;23.58;17.55;;;;;;;;;;10101078;28;20076;-69
2022/09/25 22:18:47;;;;;;;22.85;19.33;;;;;;;;;;10098077;28;20068;-69
2022/09/25 22:23:41;;;;;;;22.60;20.20;;;;;;;;;;10094804;28;20098;-68
2022/09/25 22:28:35;;;;;;;21.30;19.00;;;;;;;;;;10088172;28;20453;-68
2022/09/25 22:33:29;;;;;;;21.27;19.08;;;;;;;;;;10065429;28;20054;-68
2022/09/25 22:38:22;;;;;;;19.80;17.80;;;;;;;;;;10067293;28;20041;-68
2022/09/25 22:43:17;;;;;;;25.52;19.67;;;;;;;;;;10068247;28;20049;-68
2022/09/25 22:48:11;;;;;;;21.17;18.98;;;;;;;;;;10069385;28;20096;-68
2022/09/25 22:53:05;;;;;;;23.42;18.90;;;;;;;;;;10069502;28;20059;-67
2022/09/25 22:58:00;;;;;;;22.55;20.15;;;;;;;;;;10068818;28;20045;-67
2022/09/25 23:02:55;;;;;;;21.08;18.88;;;;;;;;;;10068554;28;20049;-67
2022/09/25 23:07:49;;;;;;;22.48;18.98;;;;;;;;;;10068480;28;20057;-67
2022/09/25 23:12:42;;;;;;;22.13;18.55;;;;;;;;;;10069127;28;20050;-67
2022/09/25 23:17:36;;;;;;;22.42;19.90;;;;;;;;;;10068941;28;20045;-66
2022/09/25 23:22:31;;;;;;;24.95;21.52;;;;;;;;;;10068825;28;20140;-66
2022/09/25 23:27:25;;;;;;;22.60;20.20;;;;;;;;;;10068255;28;20107;-68
2022/09/25 23:32:23;;;;;;;22.83;20.02;;;;;;;;;;10060122;28;20141;-68
2022/09/25 23:37:18;;;;;;;25.17;22.07;;;;;;;;;;10068063;28;20045;-68
2022/09/25 23:42:12;;;;;;;25.08;20.42;;;;;;;;;;10054016;28;20054;-68
2022/09/25 23:47:06;;;;;;;22.17;19.15;;;;;;;;;;10043157;28;20053;-68
2022/09/25 23:52:02;;;;;;;22.77;20.33;;;;;;;;;;10067891;28;20080;-68
2022/09/25 23:56:58;;;;;;;23.63;21.10;;;;;;;;;;10050019;28;20057;-68
